Terminal Aerodrome Forecast
Issued by NWS

Home | Current Version | Previous Version | Text Only | Print | Product List | Glossary On
Versions: 1 2 3 4 5 6 7 8 9 10 11 12 13 14 15
000
FTUS44 KLIX 191139
TAFMSY
TAF
KMSY 191139Z 1912/2018 31008KT P6SM SCT014 BKN035 OVC060
     FM191400 35012KT P6SM BKN060
     FM191700 36012KT P6SM SCT060 BKN250
     FM200600 02016KT P6SM FEW250=

USA.gov is the U.S. government's official web portal to all federal, state and local government web resources and services.